Time;durP1;ratioP1;P1;durP2;ratioP2;P2;SDS_P1;SDS_P2;PMS_P1;PMS_P2;Temp;Humidity;BMP_temperature;BMP_pressure;BME280_temperature;BME280_humidity;BME280_pressure;Samples;Min_cycle;Max_cycle;Signal;HPM_P1;HPM_P2
2022/04/18 00:01:37;;;;;;;15.05;7.90;;;;;;;0.54;52.57;98922.91;5090216;28;20028;-71
2022/04/18 00:04:02;;;;;;;27.55;12.13;;;;;;;0.49;52.72;98919.19;5087764;28;20077;-71
2022/04/18 00:06:28;;;;;;;32.22;12.93;;;;;;;0.46;52.89;98915.06;5089912;28;20609;-71
2022/04/18 00:08:53;;;;;;;30.33;12.00;;;;;;;0.47;52.99;98908.63;5089818;28;20027;-72
2022/04/18 00:11:18;;;;;;;24.58;9.60;;;;;;;0.43;52.84;98913.63;5090586;28;20107;-72
2022/04/18 00:13:44;;;;;;;21.83;9.18;;;;;;;0.39;53.29;98908.88;5089990;28;20469;-72
2022/04/18 00:16:09;;;;;;;15.68;8.27;;;;;;;0.34;53.32;98908.72;5090652;28;20066;-71
2022/04/18 00:18:35;;;;;;;16.63;8.60;;;;;;;0.34;53.31;98911.41;5088820;28;20212;-71
2022/04/18 00:21:00;;;;;;;16.02;8.73;;;;;;;0.36;53.38;98912.00;5090306;28;20157;-72
2022/04/18 00:23:25;;;;;;;15.48;8.63;;;;;;;0.35;53.46;98902.25;5090082;28;20101;-72
2022/04/18 00:25:51;;;;;;;18.10;9.02;;;;;;;0.34;53.56;98896.06;5087697;28;20025;-72
2022/04/18 00:28:16;;;;;;;17.35;8.75;;;;;;;0.29;53.45;98902.09;5090109;28;20024;-71
2022/04/18 00:30:42;;;;;;;17.55;8.75;;;;;;;0.29;53.57;98907.50;5089345;28;20466;-71
2022/04/18 00:33:09;;;;;;;21.42;9.60;;;;;;;0.30;53.95;98900.22;5089613;28;20393;-72
2022/04/18 00:35:35;;;;;;;18.73;9.45;;;;;;;0.29;53.76;98901.28;5089846;28;20454;-71
2022/04/18 00:38:00;;;;;;;26.02;13.55;;;;;;;0.29;53.94;98896.69;5086212;28;20031;-71
2022/04/18 00:40:25;;;;;;;20.75;10.23;;;;;;;0.27;53.68;98892.56;5089494;28;20051;-71
2022/04/18 00:42:51;;;;;;;22.80;11.82;;;;;;;0.19;53.74;98895.53;5088155;28;20016;-72
2022/04/18 00:45:16;;;;;;;25.20;12.13;;;;;;;0.16;53.88;98887.88;5089642;28;20440;-71
2022/04/18 00:47:42;;;;;;;28.48;12.95;;;;;;;0.08;54.22;98883.56;5089720;28;20038;-71
2022/04/18 00:50:08;;;;;;;22.55;11.05;;;;;;;0.04;54.10;98885.03;5089042;28;20042;-71
2022/04/18 00:52:35;;;;;;;22.50;10.20;;;;;;;-0.02;54.53;98875.97;5089722;28;20086;-71
2022/04/18 00:55:02;;;;;;;25.65;12.20;;;;;;;-0.10;54.37;98873.50;5089942;28;20485;-72
2022/04/18 00:57:29;;;;;;;36.28;14.25;;;;;;;-0.21;54.51;98865.06;5088652;28;20027;-71
2022/04/18 00:59:54;;;;;;;28.70;12.50;;;;;;;-0.25;54.98;98868.41;5088687;28;20511;-72
2022/04/18 01:02:20;;;;;;;28.13;13.00;;;;;;;-0.32;55.08;98861.19;5089674;28;20107;-72
2022/04/18 01:04:45;;;;;;;30.10;13.13;;;;;;;-0.34;55.13;98859.72;5089618;28;20036;-72
2022/04/18 01:07:12;;;;;;;30.35;13.82;;;;;;;-0.35;55.17;98855.38;5089313;28;20097;-72
2022/04/18 01:09:38;;;;;;;25.58;13.43;;;;;;;-0.34;55.35;98854.34;5088633;28;20020;-72
2022/04/18 01:12:04;;;;;;;23.70;12.65;;;;;;;-0.30;55.47;98847.47;5089000;28;20035;-72
2022/04/18 01:14:29;;;;;;;26.08;12.95;;;;;;;-0.29;55.38;98845.63;5088784;28;20031;-72
2022/04/18 01:16:55;;;;;;;28.15;14.82;;;;;;;-0.27;55.44;98849.75;5089179;28;20470;-72
2022/04/18 01:19:20;;;;;;;29.75;14.18;;;;;;;-0.27;55.52;98848.94;5088136;28;20059;-72
2022/04/18 01:21:46;;;;;;;27.50;13.20;;;;;;;-0.21;55.52;98842.69;5089944;28;20462;-72
2022/04/18 01:29:39;;;;;;;24.63;13.70;;;;;;;-0.26;55.64;98829.03;5086390;28;20035;-72
2022/04/18 01:32:05;;;;;;;29.55;13.80;;;;;;;-0.29;55.58;98834.84;5089346;28;20016;-72
2022/04/18 01:34:31;;;;;;;24.58;12.88;;;;;;;-0.33;55.91;98831.75;5089188;28;20107;-73
2022/04/18 01:36:56;;;;;;;23.30;11.75;;;;;;;-0.37;55.73;98825.97;5089545;28;20446;-72
2022/04/18 01:39:22;;;;;;;25.95;13.02;;;;;;;-0.44;55.74;98827.88;5088721;28;20525;-72
2022/04/18 01:41:47;;;;;;;21.70;11.80;;;;;;;-0.48;56.06;98830.19;5088505;28;20509;-72
2022/04/18 01:44:12;;;;;;;24.90;13.18;;;;;;;-0.49;56.04;98819.59;5083417;28;20040;-72
2022/04/18 01:46:38;;;;;;;24.85;13.50;;;;;;;-0.51;56.04;98829.75;5088731;28;21181;-72
2022/04/18 01:49:04;;;;;;;26.83;12.90;;;;;;;-0.51;56.24;98821.69;5087584;28;20024;-72
2022/04/18 01:51:29;;;;;;;26.95;13.48;;;;;;;-0.50;56.19;98823.31;5089104;28;20020;-72
2022/04/18 01:53:54;;;;;;;27.35;13.85;;;;;;;-0.51;56.03;98817.13;5084638;28;20149;-71
2022/04/18 01:56:20;;;;;;;24.48;12.82;;;;;;;-0.53;56.47;98813.81;5086761;28;20480;-72
2022/04/18 01:58:45;;;;;;;30.73;14.23;;;;;;;-0.58;56.32;98810.94;5088197;28;20850;-72
2022/04/18 02:01:11;;;;;;;35.05;16.77;;;;;;;-0.62;56.49;98810.56;5089363;28;20032;-72
2022/04/18 02:03:40;;;;;;;27.10;14.10;;;;;;;-0.66;56.36;98805.78;5087733;28;20026;-72
2022/04/18 02:06:06;;;;;;;30.67;15.32;;;;;;;-0.68;56.88;98805.19;5088500;28;20024;-72
2022/04/18 02:08:32;;;;;;;28.23;14.63;;;;;;;-0.73;56.88;98807.69;5088041;28;20456;-72
2022/04/18 02:10:57;;;;;;;30.75;14.55;;;;;;;-0.79;57.13;98809.38;5089099;28;20031;-72
2022/04/18 02:13:24;;;;;;;31.55;14.95;;;;;;;-0.88;57.09;98799.88;5090640;28;20127;-72
2022/04/18 02:15:50;;;;;;;32.10;15.07;;;;;;;-0.93;57.44;98798.66;5092249;28;20036;-72
2022/04/18 02:18:15;;;;;;;35.40;16.42;;;;;;;-0.97;57.36;98796.59;5092768;28;20452;-72
2022/04/18 02:20:41;;;;;;;32.20;17.40;;;;;;;-0.98;57.64;98792.25;5091789;28;20032;-72
2022/04/18 02:23:06;;;;;;;35.35;17.05;;;;;;;-0.97;57.86;98794.72;5092597;28;20450;-72
2022/04/18 02:25:32;;;;;;;35.45;16.67;;;;;;;-0.96;57.70;98793.69;5092196;28;20023;-72
2022/04/18 02:27:58;;;;;;;32.85;16.25;;;;;;;-0.95;57.98;98791.84;5092777;28;20056;-72
2022/04/18 02:30:24;;;;;;;30.83;14.90;;;;;;;-0.94;57.78;98788.91;5090833;28;20032;-72
2022/04/18 02:32:50;;;;;;;27.67;14.93;;;;;;;-0.90;58.29;98790.16;5090993;28;20023;-72
2022/04/18 02:35:25;;;;;;;29.35;15.38;;;;;;;-0.87;58.00;98798.84;5092196;28;20030;-72
2022/04/18 02:37:52;;;;;;;28.10;15.32;;;;;;;-0.90;57.91;98787.44;5092180;28;20085;-71
2022/04/18 02:40:18;;;;;;;30.38;14.18;;;;;;;-0.91;57.86;98784.97;5091527;28;20048;-72
2022/04/18 02:42:43;;;;;;;31.85;14.57;;;;;;;-0.96;57.92;98782.09;5091916;28;20047;-71
2022/04/18 02:45:10;;;;;;;27.20;13.80;;;;;;;-1.01;58.32;98773.84;5091459;28;20036;-71
2022/04/18 02:47:36;;;;;;;31.33;13.98;;;;;;;-1.06;58.11;98775.28;5092314;28;20706;-72
2022/04/18 02:50:01;;;;;;;26.77;12.57;;;;;;;-1.08;58.59;98776.56;5091567;28;20070;-72
2022/04/18 02:52:27;;;;;;;27.17;13.77;;;;;;;-1.07;58.28;98775.53;5092111;28;20107;-72
2022/04/18 02:54:53;;;;;;;26.88;12.50;;;;;;;-1.02;58.80;98778.41;5073935;28;20047;-72
2022/04/18 02:57:18;;;;;;;22.85;12.70;;;;;;;-0.97;58.39;98775.06;5090058;28;20020;-72
2022/04/18 02:59:43;;;;;;;28.23;12.40;;;;;;;-0.94;58.29;98769.25;5090051;28;20036;-72
2022/04/18 03:02:09;;;;;;;24.75;12.63;;;;;;;-0.95;58.34;98772.97;5092314;28;20020;-72
2022/04/18 03:04:34;;;;;;;27.80;12.40;;;;;;;-1.02;58.33;98764.09;5091509;28;20465;-72
2022/04/18 03:07:01;;;;;;;25.92;12.77;;;;;;;-1.11;58.08;98769.72;5090379;28;20024;-72
2022/04/18 03:09:26;;;;;;;25.63;12.75;;;;;;;-1.20;58.55;98763.75;5091176;28;20056;-72
2022/04/18 03:11:52;;;;;;;30.38;13.63;;;;;;;-1.26;58.53;98771.84;5091638;28;20058;-72
2022/04/18 03:14:17;;;;;;;27.85;12.88;;;;;;;-1.29;58.85;98770.41;5091423;28;20028;-73
2022/04/18 03:16:42;;;;;;;30.17;12.65;;;;;;;-1.28;58.94;98763.97;5091319;28;20466;-72
2022/04/18 03:19:08;;;;;;;33.47;15.07;;;;;;;-1.30;58.73;98759.84;5090789;28;20541;-73
2022/04/18 03:21:33;;;;;;;30.38;14.20;;;;;;;-1.36;58.54;98765.03;5089358;28;20035;-73
2022/04/18 03:23:59;;;;;;;32.25;13.65;;;;;;;-1.38;59.03;98758.19;5093257;28;20066;-72
2022/04/18 03:26:24;;;;;;;26.98;12.55;;;;;;;-1.40;59.04;98752.19;5092917;28;20036;-73
2022/04/18 03:28:50;;;;;;;31.10;13.27;;;;;;;-1.39;59.14;98756.53;5089999;28;20036;-72
2022/04/18 03:31:16;;;;;;;29.42;13.48;;;;;;;-1.38;58.91;98750.13;5090098;28;20393;-72
2022/04/18 03:33:41;;;;;;;26.92;12.85;;;;;;;-1.37;59.22;98749.94;5091132;28;20043;-74
2022/04/18 03:41:35;;;;;;;31.67;13.52;;;;;;;-1.33;59.03;98736.88;5091258;28;20113;-73
2022/04/18 03:44:00;;;;;;;31.35;14.65;;;;;;;-1.36;59.15;98739.97;5089482;28;20457;-73
2022/04/18 03:46:26;;;;;;;32.20;14.18;;;;;;;-1.39;59.52;98730.47;5088653;28;20052;-75
2022/04/18 03:48:51;;;;;;;33.15;15.13;;;;;;;-1.43;58.93;98737.31;5088989;28;20063;-74
2022/04/18 03:51:16;;;;;;;35.45;16.17;;;;;;;-1.51;59.05;98724.94;5089713;28;20797;-74
2022/04/18 03:53:42;;;;;;;31.98;14.10;;;;;;;-1.59;59.25;98727.84;5088683;28;20016;-74
2022/04/18 03:56:07;;;;;;;29.08;13.90;;;;;;;-1.62;59.33;98730.94;5088360;28;20032;-74
2022/04/18 03:58:33;;;;;;;28.65;13.65;;;;;;;-1.59;59.46;98724.31;5088379;28;20027;-75
2022/04/18 04:00:58;;;;;;;30.75;14.13;;;;;;;-1.54;59.26;98728.03;5087843;28;20462;-74
2022/04/18 04:03:26;;;;;;;30.75;15.55;;;;;;;-1.48;59.73;98725.56;5089260;28;20028;-75
2022/04/18 04:05:53;;;;;;;32.22;14.65;;;;;;;-1.41;59.85;98729.03;5089721;28;20114;-74
2022/04/18 04:08:22;;;;;;;29.05;14.45;;;;;;;-1.35;59.40;98730.88;5088992;28;20081;-75
2022/04/18 04:10:49;;;;;;;35.20;16.80;;;;;;;-1.28;59.79;98731.69;5088461;28;20107;-74
2022/04/18 04:13:15;;;;;;;38.72;16.40;;;;;;;-1.24;59.43;98727.53;5089171;28;20502;-74
2022/04/18 04:15:40;;;;;;;35.10;15.82;;;;;;;-1.17;59.42;98729.38;5089476;28;20054;-74
2022/04/18 04:18:05;;;;;;;33.53;15.45;;;;;;;-1.14;59.40;98726.25;5089314;28;20466;-74
2022/04/18 04:20:31;;;;;;;34.65;17.02;;;;;;;-1.10;59.22;98724.78;5087483;28;20028;-74
2022/04/18 04:22:56;;;;;;;34.75;17.23;;;;;;;-1.09;59.30;98724.56;5088819;28;20070;-74
2022/04/18 04:25:22;;;;;;;32.15;15.57;;;;;;;-1.10;59.30;98720.22;5089292;28;20393;-74
2022/04/18 04:27:47;;;;;;;34.00;15.10;;;;;;;-1.06;59.59;98721.44;5088855;28;20485;-74
2022/04/18 04:30:13;;;;;;;32.65;15.70;;;;;;;-1.03;59.36;98722.91;5087930;28;20020;-74
2022/04/18 04:32:38;;;;;;;31.88;15.13;;;;;;;-1.01;59.42;98720.78;5088870;28;20063;-74
2022/04/18 04:35:04;;;;;;;37.50;16.13;;;;;;;-0.98;59.57;98716.88;5088028;28;20440;-74
2022/04/18 04:37:29;;;;;;;30.30;16.00;;;;;;;-1.00;59.41;98722.44;5087248;28;20032;-73
2022/04/18 04:39:55;;;;;;;33.13;15.93;;;;;;;-0.99;59.86;98717.91;5088032;28;20024;-73
2022/04/18 04:42:20;;;;;;;39.42;17.38;;;;;;;-0.96;60.39;98718.28;5088721;28;20031;-73
2022/04/18 04:44:46;;;;;;;40.10;18.50;;;;;;;-0.88;60.33;98721.78;5087336;28;20689;-73
2022/04/18 04:47:11;;;;;;;38.20;18.20;;;;;;;-0.80;60.58;98719.66;5088637;28;20544;-74
2022/04/18 04:49:37;;;;;;;43.72;18.40;;;;;;;-0.70;60.64;98711.13;5087751;28;20039;-74
2022/04/18 04:52:05;;;;;;;36.72;17.60;;;;;;;-0.58;60.39;98707.72;5088253;28;20708;-73
2022/04/18 04:54:37;;;;;;;38.60;18.45;;;;;;;-0.50;60.41;98718.25;5088566;28;20112;-74
2022/04/18 04:57:03;;;;;;;39.75;18.65;;;;;;;-0.40;60.44;98715.06;5088523;28;20485;-74
2022/04/18 04:59:28;;;;;;;38.28;18.08;;;;;;;-0.29;60.16;98713.56;5087346;28;20035;-74
2022/04/18 05:01:53;;;;;;;43.47;18.95;;;;;;;-0.17;60.33;98711.78;5088588;28;20091;-74
2022/04/18 05:04:19;;;;;;;43.83;20.23;;;;;;;-0.05;60.30;98704.63;5087825;28;20026;-73
2022/04/18 05:06:45;;;;;;;38.20;18.80;;;;;;;0.07;60.28;98710.13;5088396;28;20103;-74
2022/04/18 05:09:11;;;;;;;39.35;19.75;;;;;;;0.19;60.28;98707.53;5087495;28;20462;-74
2022/04/18 05:11:37;;;;;;;39.53;20.02;;;;;;;0.28;60.16;98703.50;5088244;28;20020;-74
2022/04/18 05:14:03;;;;;;;37.38;18.52;;;;;;;0.39;59.95;98704.66;5088388;28;20374;-74
2022/04/18 05:16:28;;;;;;;37.28;18.10;;;;;;;0.46;59.99;98704.56;5088172;28;20039;-73
2022/04/18 05:18:53;;;;;;;33.58;16.45;;;;;;;0.55;59.79;98707.78;5087146;28;20582;-74
2022/04/18 05:21:19;;;;;;;37.45;18.38;;;;;;;0.61;59.76;98706.09;5088657;28;20124;-73
2022/04/18 05:23:44;;;;;;;37.00;18.73;;;;;;;0.74;59.76;98714.00;5088129;28;20024;-74
2022/04/18 05:26:10;;;;;;;35.17;16.00;;;;;;;0.83;59.50;98703.72;5087680;28;20539;-73
2022/04/18 05:28:35;;;;;;;30.95;16.67;;;;;;;0.89;59.80;98700.13;5084909;28;20020;-74
2022/04/18 05:31:01;;;;;;;33.97;17.80;;;;;;;0.98;59.69;98698.75;5088243;28;20016;-74
2022/04/18 05:33:27;;;;;;;29.88;15.05;;;;;;;1.07;59.61;98701.97;5087570;28;20024;-74
2022/04/18 05:35:53;;;;;;;33.80;15.82;;;;;;;1.20;59.92;98695.56;5088104;28;20099;-73
2022/04/18 05:38:18;;;;;;;28.08;15.25;;;;;;;1.37;59.74;98703.03;5088016;28;20020;-74
2022/04/18 05:40:43;;;;;;;33.72;18.85;;;;;;;1.54;59.68;98708.59;5087223;28;20024;-73
2022/04/18 05:43:09;;;;;;;32.35;17.13;;;;;;;1.66;59.38;98712.16;5088040;28;20556;-73
2022/04/18 05:45:37;;;;;;;42.78;18.85;;;;;;;1.71;59.39;98708.75;5087936;28;20547;-74
2022/04/18 05:48:02;;;;;;;35.38;17.65;;;;;;;1.74;58.93;98719.94;5091061;28;20494;-74
2022/04/18 05:50:28;;;;;;;36.92;19.17;;;;;;;1.78;58.80;98714.88;5091222;28;20027;-72
2022/04/18 05:52:54;;;;;;;30.35;15.55;;;;;;;1.82;59.02;98718.78;5092377;28;20051;-72
2022/04/18 05:55:20;;;;;;;31.92;16.50;;;;;;;1.85;58.88;98714.75;5092841;28;20091;-72
2022/04/18 05:57:45;;;;;;;33.38;16.25;;;;;;;1.89;59.16;98719.50;5096714;28;20047;-73
2022/04/18 06:00:11;;;;;;;33.55;17.42;;;;;;;1.91;58.69;98717.38;5093101;28;20466;-71
2022/04/18 06:02:37;;;;;;;33.78;17.50;;;;;;;1.96;58.52;98711.25;5095403;28;20809;-71
2022/04/18 06:05:02;;;;;;;34.83;17.33;;;;;;;2.03;58.78;98716.59;5096816;28;20059;-72
2022/04/18 06:07:28;;;;;;;35.72;17.75;;;;;;;2.13;58.55;98714.09;5097845;28;20108;-71
2022/04/18 06:09:53;;;;;;;33.03;16.70;;;;;;;2.19;58.41;98709.66;5092207;28;20043;-71
2022/04/18 06:12:20;;;;;;;32.35;16.08;;;;;;;2.26;59.06;98714.94;5093029;28;20031;-71
2022/04/18 06:14:46;;;;;;;28.98;15.75;;;;;;;2.30;58.76;98714.22;5092093;28;20482;-71
2022/04/18 06:17:11;;;;;;;27.38;14.20;;;;;;;2.39;58.28;98717.41;5090899;28;20028;-71
2022/04/18 06:19:36;;;;;;;21.95;12.70;;;;;;;2.46;58.27;98725.41;5089514;28;20117;-71
2022/04/18 06:22:03;;;;;;;25.65;13.25;;;;;;;2.55;58.48;98717.72;5092640;28;20024;-71
2022/04/18 06:24:29;;;;;;;20.63;11.65;;;;;;;2.63;58.41;98712.78;5092260;28;20031;-71
2022/04/18 06:26:54;;;;;;;23.42;13.18;;;;;;;2.75;58.56;98706.50;5093255;28;20040;-71
2022/04/18 06:29:19;;;;;;;41.28;19.60;;;;;;;2.87;58.70;98710.03;5091935;28;20035;-71
2022/04/18 06:31:46;;;;;;;46.42;29.42;;;;;;;3.00;58.56;98703.50;5092815;28;20046;-71
2022/04/18 06:34:12;;;;;;;95.78;36.50;;;;;;;3.16;58.09;98706.53;5089965;28;20359;-71
2022/04/18 06:36:38;;;;;;;237.32;68.38;;;;;;;3.35;57.77;98701.72;5092664;28;20107;-71
2022/04/18 06:39:03;;;;;;;213.93;58.55;;;;;;;3.53;58.19;98692.56;5091832;28;20032;-71
2022/04/18 06:41:29;;;;;;;177.20;52.65;;;;;;;3.69;57.17;98701.78;5092699;28;20026;-71
2022/04/18 06:43:54;;;;;;;151.27;44.38;;;;;;;3.80;57.06;98698.19;5091128;28;20039;-71
2022/04/18 06:46:20;;;;;;;129.27;42.38;;;;;;;3.92;57.18;98689.97;5091504;28;20131;-71
2022/04/18 06:48:45;;;;;;;53.65;23.23;;;;;;;4.02;57.05;98684.69;5091257;28;20511;-72
2022/04/18 06:51:11;;;;;;;60.95;24.25;;;;;;;4.14;56.82;98684.59;5092131;28;20024;-72
2022/04/18 06:53:36;;;;;;;42.70;18.02;;;;;;;4.26;56.04;98687.22;5090726;28;20028;-71
2022/04/18 06:58:46;;;;;;;32.00;13.52;;;;;;;4.52;55.29;98689.47;5088765;28;20141;-71
2022/04/18 07:01:11;;;;;;;25.65;12.70;;;;;;;4.63;55.69;98685.84;5089371;28;20059;-71
2022/04/18 07:03:37;;;;;;;31.75;14.32;;;;;;;4.71;55.59;98682.66;5091781;28;20094;-71
2022/04/18 07:06:03;;;;;;;31.30;14.38;;;;;;;4.84;55.60;98686.91;5091651;28;20024;-71
2022/04/18 07:08:28;;;;;;;22.48;12.05;;;;;;;5.00;55.49;98678.94;5090702;28;20038;-71
2022/04/18 07:10:54;;;;;;;25.52;13.00;;;;;;;5.16;54.99;98682.63;5091539;28;20012;-71
2022/04/18 07:13:19;;;;;;;30.25;14.95;;;;;;;5.31;54.46;98685.53;5091722;28;20153;-70
2022/04/18 07:15:45;;;;;;;35.00;15.63;;;;;;;5.44;52.93;98676.13;5089048;28;20028;-71
2022/04/18 07:18:10;;;;;;;41.28;18.67;;;;;;;5.66;54.11;98676.06;5089016;28;20048;-71
2022/04/18 07:20:36;;;;;;;30.73;15.63;;;;;;;5.89;54.19;98675.97;5090899;28;20024;-71
2022/04/18 07:23:02;;;;;;;27.13;14.25;;;;;;;6.09;52.12;98675.34;5085772;28;20032;-71
2022/04/18 07:25:27;;;;;;;32.13;16.13;;;;;;;6.25;51.44;98673.53;5090609;28;20469;-71
2022/04/18 07:27:53;;;;;;;33.42;16.30;;;;;;;6.39;52.08;98673.91;5090272;28;20028;-72
2022/04/18 07:30:18;;;;;;;38.17;17.75;;;;;;;6.56;52.25;98676.44;5089717;28;20105;-72
2022/04/18 07:32:44;;;;;;;27.85;15.15;;;;;;;6.72;51.78;98680.09;5090357;28;20028;-72
2022/04/18 07:35:11;;;;;;;28.70;15.23;;;;;;;6.84;51.97;98672.50;5089918;28;20024;-71
2022/04/18 07:38:48;;;;;;;22.27;11.95;;;;;;;7.01;52.18;98671.47;5089796;28;20032;-72
2022/04/18 07:40:24;;;;;;;19.95;11.45;;;;;;;7.14;50.30;98673.69;5088800;28;20442;-71
2022/04/18 07:42:49;;;;;;;26.15;14.60;;;;;;;7.19;49.43;98667.44;5086933;28;20028;-71
2022/04/18 07:45:14;;;;;;;18.23;10.60;;;;;;;7.23;50.13;98668.53;5089379;28;20728;-71
2022/04/18 07:47:40;;;;;;;18.77;10.27;;;;;;;7.26;49.26;98659.81;5089850;28;20031;-71
2022/04/18 07:50:06;;;;;;;14.32;7.78;;;;;;;7.29;49.39;98669.38;5088269;28;20035;-71
2022/04/18 07:52:31;;;;;;;12.48;7.70;;;;;;;7.32;48.69;98660.66;5090038;28;20027;-71
2022/04/18 07:54:56;;;;;;;17.30;8.88;;;;;;;7.39;48.11;98652.19;5089390;28;20497;-71
2022/04/18 07:57:22;;;;;;;18.45;9.95;;;;;;;7.44;48.02;98654.94;5088888;28;20036;-71
2022/04/18 07:59:47;;;;;;;14.93;9.25;;;;;;;7.50;48.19;98651.13;5088703;28;20038;-71
2022/04/18 08:02:13;;;;;;;16.77;9.15;;;;;;;7.53;48.21;98647.84;5088421;28;20059;-71
2022/04/18 08:04:39;;;;;;;12.32;7.07;;;;;;;7.59;47.28;98648.66;5089802;28;20427;-71
2022/04/18 08:07:05;;;;;;;11.20;6.15;;;;;;;7.58;46.36;98644.28;5089247;28;20470;-71
2022/04/18 08:09:31;;;;;;;13.10;6.40;;;;;;;7.55;46.15;98639.38;5088779;28;20028;-71
2022/04/18 08:11:56;;;;;;;10.15;5.07;;;;;;;7.58;44.44;98639.66;5088963;28;20536;-71
2022/04/18 08:14:21;;;;;;;8.32;5.00;;;;;;;7.65;45.10;98641.31;5088823;28;20092;-71
2022/04/18 08:16:47;;;;;;;11.27;6.07;;;;;;;7.64;45.73;98640.47;5088138;28;20466;-71
2022/04/18 08:19:12;;;;;;;13.50;7.80;;;;;;;7.71;46.29;98632.84;5088582;28;20039;-71
2022/04/18 08:21:38;;;;;;;13.57;7.78;;;;;;;7.85;46.23;98629.56;5088117;28;20028;-71
2022/04/18 08:24:04;;;;;;;12.30;7.43;;;;;;;8.02;46.67;98638.28;5086846;28;20530;-70
2022/04/18 08:26:29;;;;;;;9.65;5.68;;;;;;;8.17;45.14;98628.44;5086932;28;20035;-71
2022/04/18 08:28:54;;;;;;;8.70;5.53;;;;;;;8.34;44.65;98628.13;5087787;28;20057;-72
2022/04/18 08:31:20;;;;;;;15.27;7.18;;;;;;;8.49;44.75;98630.03;5089351;28;20071;-72
2022/04/18 08:33:46;;;;;;;11.75;6.60;;;;;;;8.64;44.13;98626.41;5089605;28;20094;-72
2022/04/18 08:36:11;;;;;;;10.30;6.13;;;;;;;8.69;43.95;98629.13;5087958;28;20491;-72
2022/04/18 08:38:36;;;;;;;7.15;4.15;;;;;;;8.74;42.37;98625.56;5088163;28;20028;-72
2022/04/18 08:41:09;;;;;;;7.55;4.30;;;;;;;8.71;42.58;98623.41;5085017;28;20031;-72
2022/04/18 08:43:35;;;;;;;6.00;3.78;;;;;;;8.83;42.06;98632.06;5083950;28;20367;-72
2022/04/18 08:46:07;;;;;;;9.15;4.90;;;;;;;8.94;42.34;98619.19;5088008;28;20512;-72
2022/04/18 08:54:05;;;;;;;13.43;7.53;;;;;;;8.98;41.01;98617.50;5087814;28;20066;-70
2022/04/18 08:56:31;;;;;;;11.18;6.80;;;;;;;9.06;40.63;98618.84;5085136;28;20028;-70
2022/04/18 08:58:57;;;;;;;12.35;6.95;;;;;;;9.17;41.69;98611.38;5087404;28;20031;-69
2022/04/18 09:01:22;;;;;;;11.88;6.45;;;;;;;9.25;40.97;98616.25;5087535;28;20035;-69
2022/04/18 09:03:48;;;;;;;10.82;6.78;;;;;;;9.32;41.75;98607.72;5085770;28;20012;-70
2022/04/18 09:06:14;;;;;;;11.40;6.55;;;;;;;9.47;41.41;98596.69;5084850;28;20474;-69
2022/04/18 09:08:51;;;;;;;12.93;8.23;;;;;;;9.65;41.18;98608.03;5086898;28;20065;-69
2022/04/18 09:11:36;;;;;;;29.35;18.67;;;;;;;9.63;42.16;98600.13;5087922;28;20020;-69
2022/04/18 09:14:10;;;;;;;46.83;26.17;;;;;;;9.59;41.42;98601.78;5088832;28;20107;-69
2022/04/18 09:16:37;;;;;;;47.85;32.00;;;;;;;9.51;41.45;98603.22;5086763;28;20016;-69
2022/04/18 09:19:14;;;;;;;30.88;19.92;;;;;;;9.51;42.32;98603.22;5087343;28;20504;-70
2022/04/18 09:21:43;;;;;;;8.65;5.32;;;;;;;9.57;41.13;98604.00;5084530;28;20033;-70
2022/04/18 09:24:24;;;;;;;7.70;4.97;;;;;;;9.57;40.11;98595.78;5087995;28;20408;-69
2022/04/18 09:26:49;;;;;;;7.55;4.55;;;;;;;9.61;39.81;98594.09;5086818;28;20106;-70
2022/04/18 09:29:17;;;;;;;7.72;4.75;;;;;;;9.67;39.89;98598.44;5087118;28;20104;-69
2022/04/18 09:31:42;;;;;;;12.77;7.75;;;;;;;9.66;39.37;98591.31;5086459;28;20039;-71
2022/04/18 09:34:08;;;;;;;9.90;5.68;;;;;;;9.66;40.24;98599.53;5087106;28;20016;-70
2022/04/18 09:36:33;;;;;;;8.80;5.55;;;;;;;9.83;40.39;98601.84;5087486;28;20488;-69
2022/04/18 09:38:58;;;;;;;7.45;4.53;;;;;;;10.05;40.86;98589.59;5082262;28;20036;-69
2022/04/18 09:41:29;;;;;;;9.85;5.22;;;;;;;10.36;40.80;98586.53;5087576;28;20062;-71
2022/04/18 09:43:55;;;;;;;7.88;4.82;;;;;;;10.53;40.56;98583.34;5088958;28;20069;-69
2022/04/18 09:46:22;;;;;;;8.73;4.05;;;;;;;10.55;39.83;98592.09;5087594;28;20040;-70
2022/04/18 09:48:49;;;;;;;8.07;4.35;;;;;;;10.47;39.04;98589.16;5086394;28;20040;-70
2022/04/18 09:51:26;;;;;;;10.57;5.93;;;;;;;10.27;38.58;98585.53;5088900;28;20036;-70
2022/04/18 09:53:57;;;;;;;12.52;6.55;;;;;;;10.19;38.35;98586.97;5090448;28;20090;-69
2022/04/18 09:56:24;;;;;;;6.13;4.30;;;;;;;10.14;38.58;98581.56;5094608;28;20060;-72
2022/04/18 09:58:50;;;;;;;8.95;5.03;;;;;;;10.03;38.13;98575.34;5088275;28;20138;-71
2022/04/18 10:01:19;;;;;;;7.72;5.22;;;;;;;10.06;38.61;98572.03;5089010;28;20024;-71
2022/04/18 10:03:46;;;;;;;11.82;8.93;;;;;;;10.21;38.86;98575.72;5084556;28;20042;-71
2022/04/18 10:06:12;;;;;;;7.65;4.72;;;;;;;10.26;38.39;98562.78;5089536;28;20032;-72
2022/04/18 10:08:38;;;;;;;6.53;3.70;;;;;;;10.22;37.36;98567.19;5087471;28;20042;-71
2022/04/18 10:11:07;;;;;;;6.55;5.00;;;;;;;10.20;37.73;98561.19;5089050;28;20020;-73
2022/04/18 10:13:35;;;;;;;7.10;4.90;;;;;;;10.22;37.03;98561.72;5082079;28;20479;-73
2022/04/18 10:16:01;;;;;;;129.25;66.90;;;;;;;10.19;35.52;98567.78;5086997;28;20290;-72
2022/04/18 10:18:29;;;;;;;23.70;15.68;;;;;;;10.17;35.84;98567.28;5087760;28;20031;-72
2022/04/18 10:21:13;;;;;;;25.25;19.02;;;;;;;10.10;35.71;98564.88;5087506;28;20061;-72
2022/04/18 10:23:50;;;;;;;35.38;25.20;;;;;;;10.02;36.51;98564.69;5087421;28;20293;-71
2022/04/18 10:26:50;;;;;;;25.85;19.05;;;;;;;10.02;35.82;98567.44;5087322;28;20053;-72
2022/04/18 10:29:20;;;;;;;12.82;8.18;;;;;;;10.08;36.14;98560.81;5086678;28;20063;-72
2022/04/18 10:31:48;;;;;;;26.50;15.93;;;;;;;10.05;35.38;98564.91;5088000;28;20054;-72
2022/04/18 10:34:14;;;;;;;10.55;7.50;;;;;;;10.01;36.35;98558.38;5088028;28;20028;-72
2022/04/18 10:36:47;;;;;;;7.50;4.55;;;;;;;9.97;37.59;98563.63;5090224;28;20438;-72
2022/04/18 10:39:13;;;;;;;6.72;3.95;;;;;;;10.03;37.49;98558.09;5089378;28;20030;-72
2022/04/18 10:41:45;;;;;;;10.23;5.45;;;;;;;10.09;37.72;98559.69;5089731;28;20083;-72
2022/04/18 10:44:18;;;;;;;24.88;19.70;;;;;;;10.06;36.49;98552.84;5088772;28;20033;-72
2022/04/18 10:46:52;;;;;;;10.88;8.93;;;;;;;10.05;35.90;98550.41;5086926;28;20040;-72
2022/04/18 10:49:19;;;;;;;10.32;6.45;;;;;;;10.12;35.99;98543.47;5089844;28;20028;-72
2022/04/18 10:51:51;;;;;;;13.52;7.97;;;;;;;10.32;36.26;98541.63;5087924;28;20038;-74
2022/04/18 10:54:20;;;;;;;12.60;7.88;;;;;;;10.38;35.17;98543.19;5090671;28;20469;-73
2022/04/18 10:56:52;;;;;;;7.32;5.15;;;;;;;10.57;35.35;98539.69;5092062;28;20370;-71
2022/04/18 10:59:26;;;;;;;8.20;5.78;;;;;;;10.76;35.21;98525.19;5090272;28;20081;-71
2022/04/18 11:01:56;;;;;;;10.70;8.30;;;;;;;10.95;34.80;98526.00;5085865;28;20035;-71
2022/04/18 11:04:25;;;;;;;;;;;;;;;11.06;34.70;98525.84;5091150;28;20068;-71
2022/04/18 11:06:57;;;;;;;6.60;5.50;;;;;;;11.11;34.99;98528.50;5090881;28;20492;-71
2022/04/18 11:09:23;;;;;;;7.50;5.22;;;;;;;11.21;35.31;98519.28;5089434;28;20012;-71
2022/04/18 11:11:50;;;;;;;7.30;5.88;;;;;;;11.36;35.34;98519.06;5090115;28;20032;-71
2022/04/18 11:14:25;;;;;;;8.80;6.07;;;;;;;11.40;34.89;98528.34;5090045;28;20441;-71
2022/04/18 11:16:52;;;;;;;56.13;22.30;;;;;;;11.42;34.13;98522.53;5089181;28;20028;-72
2022/04/18 11:19:24;;;;;;;78.53;35.33;;;;;;;11.37;34.30;98526.19;5088833;28;20058;-72
2022/04/18 11:21:59;;;;;;;71.35;38.10;;;;;;;11.39;34.39;98514.88;5090727;28;20688;-72
2022/04/18 11:24:38;;;;;;;17.52;10.38;;;;;;;11.53;34.79;98503.94;5087254;28;20035;-71
2022/04/18 11:27:26;;;;;;;56.90;39.22;;;;;;;11.67;34.06;98498.47;5091581;28;20118;-72
2022/04/18 11:29:54;;;;;;;30.23;25.10;;;;;;;11.76;34.20;98493.91;5089487;28;20039;-71
2022/04/18 11:32:22;;;;;;;18.30;15.95;;;;;;;12.00;35.54;98496.50;5088900;28;20028;-71
2022/04/18 11:34:50;;;;;;;12.45;11.30;;;;;;;12.27;34.71;98489.38;5092822;28;20028;-71
2022/04/18 11:37:27;;;;;;;5.47;4.80;;;;;;;12.34;33.29;98494.47;5090851;28;20020;-72
2022/04/18 11:39:55;;;;;;;5.93;4.00;;;;;;;12.20;32.40;98494.50;5084806;28;20474;-72
2022/04/18 11:42:25;;;;;;;6.22;3.92;;;;;;;12.07;30.80;98487.84;5090839;28;20074;-72